sensor_id;sensor_type;location;lat;lon;timestamp;temperature;humidity
11536;DHT22;5824;49.336;8.652;2023-06-22T00:01:23;24.40;1.00
11536;DHT22;5824;49.336;8.652;2023-06-22T00:03:48;25.50;1.00
11536;DHT22;5824;49.336;8.652;2023-06-22T00:06:14;24.40;1.00
11536;DHT22;5824;49.336;8.652;2023-06-22T00:08:40;24.40;1.00
11536;DHT22;5824;49.336;8.652;2023-06-22T00:11:05;24.40;1.00
11536;DHT22;5824;49.336;8.652;2023-06-22T00:13:31;24.40;1.00
11536;DHT22;5824;49.336;8.652;2023-06-22T00:15:56;24.40;1.00
11536;DHT22;5824;49.336;8.652;2023-06-22T00:18:22;24.50;1.00
11536;DHT22;5824;49.336;8.652;2023-06-22T00:20:47;24.50;1.00
11536;DHT22;5824;49.336;8.652;2023-06-22T00:23:13;24.40;1.00
11536;DHT22;5824;49.336;8.652;2023-06-22T00:25:41;24.30;1.00
11536;DHT22;5824;49.336;8.652;2023-06-22T00:28:07;24.40;1.00
11536;DHT22;5824;49.336;8.652;2023-06-22T00:30:33;24.40;1.00
11536;DHT22;5824;49.336;8.652;2023-06-22T00:32:59;24.40;1.00
11536;DHT22;5824;49.336;8.652;2023-06-22T00:35:26;24.40;1.00
11536;DHT22;5824;49.336;8.652;2023-06-22T00:37:58;24.40;1.00
11536;DHT22;5824;49.336;8.652;2023-06-22T00:40:29;24.30;1.00
11536;DHT22;5824;49.336;8.652;2023-06-22T00:42:54;24.40;1.00
11536;DHT22;5824;49.336;8.652;2023-06-22T00:47:49;24.40;1.00
11536;DHT22;5824;49.336;8.652;2023-06-22T00:50:19;24.30;1.00
11536;DHT22;5824;49.336;8.652;2023-06-22T00:52:53;24.30;1.00
11536;DHT22;5824;49.336;8.652;2023-06-22T00:55:22;24.30;1.00
11536;DHT22;5824;49.336;8.652;2023-06-22T00:57:48;24.20;1.00
11536;DHT22;5824;49.336;8.652;2023-06-22T01:00:17;24.20;1.00
11536;DHT22;5824;49.336;8.652;2023-06-22T01:05:14;23.70;1.00
11536;DHT22;5824;49.336;8.652;2023-06-22T01:08:04;23.20;1.00
11536;DHT22;5824;49.336;8.652;2023-06-22T01:15:49;22.30;1.00
11536;DHT22;5824;49.336;8.652;2023-06-22T01:18:17;23.70;1.00
11536;DHT22;5824;49.336;8.652;2023-06-22T01:20:43;22.00;1.00
11536;DHT22;5824;49.336;8.652;2023-06-22T01:26:22;21.70;1.00
11536;DHT22;5824;49.336;8.652;2023-06-22T01:28:54;21.50;1.00
11536;DHT22;5824;49.336;8.652;2023-06-22T01:31:24;21.70;1.00
11536;DHT22;5824;49.336;8.652;2023-06-22T01:33:52;21.30;1.00
11536;DHT22;5824;49.336;8.652;2023-06-22T01:36:19;21.30;1.00
11536;DHT22;5824;49.336;8.652;2023-06-22T01:38:45;21.40;1.00
11536;DHT22;5824;49.336;8.652;2023-06-22T01:41:12;21.30;1.00
11536;DHT22;5824;49.336;8.652;2023-06-22T01:43:38;21.40;1.00
11536;DHT22;5824;49.336;8.652;2023-06-22T01:46:04;21.50;1.00
11536;DHT22;5824;49.336;8.652;2023-06-22T01:48:30;21.50;1.00
11536;DHT22;5824;49.336;8.652;2023-06-22T01:50:57;21.50;1.00
11536;DHT22;5824;49.336;8.652;2023-06-22T01:53:22;21.50;1.00
11536;DHT22;5824;49.336;8.652;2023-06-22T01:55:48;21.50;1.00
11536;DHT22;5824;49.336;8.652;2023-06-22T01:58:14;21.70;1.00
11536;DHT22;5824;49.336;8.652;2023-06-22T02:00:45;21.60;1.00
11536;DHT22;5824;49.336;8.652;2023-06-22T02:03:19;21.40;1.00
11536;DHT22;5824;49.336;8.652;2023-06-22T02:05:50;21.40;1.00
11536;DHT22;5824;49.336;8.652;2023-06-22T02:08:31;21.40;1.00
11536;DHT22;5824;49.336;8.652;2023-06-22T02:10:58;21.40;1.00
11536;DHT22;5824;49.336;8.652;2023-06-22T02:13:25;21.50;1.00
11536;DHT22;5824;49.336;8.652;2023-06-22T02:15:51;21.50;1.00
11536;DHT22;5824;49.336;8.652;2023-06-22T02:18:16;21.50;1.00
11536;DHT22;5824;49.336;8.652;2023-06-22T02:20:42;21.50;1.00
11536;DHT22;5824;49.336;8.652;2023-06-22T02:25:35;21.60;1.00
11536;DHT22;5824;49.336;8.652;2023-06-22T02:30:27;21.50;1.00
11536;DHT22;5824;49.336;8.652;2023-06-22T02:32:52;21.50;1.00
11536;DHT22;5824;49.336;8.652;2023-06-22T02:35:28;21.50;1.00
11536;DHT22;5824;49.336;8.652;2023-06-22T02:38:01;21.40;1.00
11536;DHT22;5824;49.336;8.652;2023-06-22T02:40:27;21.40;1.00
11536;DHT22;5824;49.336;8.652;2023-06-22T02:42:52;21.30;1.00
11536;DHT22;5824;49.336;8.652;2023-06-22T02:45:18;21.50;1.00
11536;DHT22;5824;49.336;8.652;2023-06-22T02:47:44;21.50;1.00
11536;DHT22;5824;49.336;8.652;2023-06-22T02:50:09;21.60;1.00
11536;DHT22;5824;49.336;8.652;2023-06-22T02:52:35;21.40;1.00
11536;DHT22;5824;49.336;8.652;2023-06-22T02:55:01;21.40;1.00
11536;DHT22;5824;49.336;8.652;2023-06-22T02:57:26;21.10;1.00
11536;DHT22;5824;49.336;8.652;2023-06-22T02:59:52;21.10;1.00
11536;DHT22;5824;49.336;8.652;2023-06-22T03:02:17;21.10;1.00
11536;DHT22;5824;49.336;8.652;2023-06-22T03:04:46;21.00;1.00
11536;DHT22;5824;49.336;8.652;2023-06-22T03:07:14;21.30;1.00
11536;DHT22;5824;49.336;8.652;2023-06-22T03:09:40;21.10;1.00
11536;DHT22;5824;49.336;8.652;2023-06-22T03:12:07;21.10;1.00
11536;DHT22;5824;49.336;8.652;2023-06-22T03:14:33;21.10;1.00
11536;DHT22;5824;49.336;8.652;2023-06-22T03:16:58;21.30;1.00
11536;DHT22;5824;49.336;8.652;2023-06-22T03:19:28;21.10;1.00
11536;DHT22;5824;49.336;8.652;2023-06-22T03:21:55;21.30;1.00
11536;DHT22;5824;49.336;8.652;2023-06-22T03:26:46;21.10;1.00
11536;DHT22;5824;49.336;8.652;2023-06-22T03:29:12;21.40;1.00
11536;DHT22;5824;49.336;8.652;2023-06-22T03:31:37;21.80;1.00
11536;DHT22;5824;49.336;8.652;2023-06-22T03:34:03;21.00;1.00
11536;DHT22;5824;49.336;8.652;2023-06-22T03:36:28;21.00;1.00
11536;DHT22;5824;49.336;8.652;2023-06-22T03:38:55;20.90;1.00
11536;DHT22;5824;49.336;8.652;2023-06-22T03:41:20;21.60;1.00
11536;DHT22;5824;49.336;8.652;2023-06-22T03:43:46;21.00;1.00
11536;DHT22;5824;49.336;8.652;2023-06-22T03:46:11;20.90;1.00
11536;DHT22;5824;49.336;8.652;2023-06-22T03:48:37;20.80;1.00
11536;DHT22;5824;49.336;8.652;2023-06-22T03:51:03;20.90;1.00
11536;DHT22;5824;49.336;8.652;2023-06-22T03:53:29;20.80;1.00
11536;DHT22;5824;49.336;8.652;2023-06-22T03:55:55;21.00;1.00
11536;DHT22;5824;49.336;8.652;2023-06-22T03:58:21;21.00;1.00
11536;DHT22;5824;49.336;8.652;2023-06-22T04:00:48;20.90;1.00
11536;DHT22;5824;49.336;8.652;2023-06-22T04:03:14;20.90;1.00
11536;DHT22;5824;49.336;8.652;2023-06-22T04:05:40;20.90;1.00
11536;DHT22;5824;49.336;8.652;2023-06-22T04:08:06;20.90;1.00
11536;DHT22;5824;49.336;8.652;2023-06-22T04:10:31;21.00;1.00
11536;DHT22;5824;49.336;8.652;2023-06-22T04:12:57;20.90;1.00
11536;DHT22;5824;49.336;8.652;2023-06-22T04:15:23;20.90;1.00
11536;DHT22;5824;49.336;8.652;2023-06-22T04:17:48;20.90;1.00
11536;DHT22;5824;49.336;8.652;2023-06-22T04:20:14;20.90;1.00
11536;DHT22;5824;49.336;8.652;2023-06-22T04:22:39;21.00;1.00
11536;DHT22;5824;49.336;8.652;2023-06-22T04:25:05;21.00;1.00
11536;DHT22;5824;49.336;8.652;2023-06-22T04:27:33;21.10;1.00
11536;DHT22;5824;49.336;8.652;2023-06-22T04:30:11;21.10;1.00
11536;DHT22;5824;49.336;8.652;2023-06-22T04:32:37;21.20;1.00
11536;DHT22;5824;49.336;8.652;2023-06-22T04:35:03;21.30;1.00
11536;DHT22;5824;49.336;8.652;2023-06-22T04:37:33;21.40;1.00
11536;DHT22;5824;49.336;8.652;2023-06-22T04:39:58;21.40;1.00
11536;DHT22;5824;49.336;8.652;2023-06-22T04:42:27;21.50;1.00
11536;DHT22;5824;49.336;8.652;2023-06-22T04:47:19;21.60;1.00
11536;DHT22;5824;49.336;8.652;2023-06-22T04:49:45;21.70;1.00
11536;DHT22;5824;49.336;8.652;2023-06-22T04:52:12;22.30;1.00
11536;DHT22;5824;49.336;8.652;2023-06-22T04:54:38;21.70;1.00
11536;DHT22;5824;49.336;8.652;2023-06-22T04:57:06;21.80;1.00
11536;DHT22;5824;49.336;8.652;2023-06-22T04:59:36;21.80;1.00
11536;DHT22;5824;49.336;8.652;2023-06-22T05:02:04;21.90;1.00
11536;DHT22;5824;49.336;8.652;2023-06-22T05:06:58;22.00;1.00
11536;DHT22;5824;49.336;8.652;2023-06-22T05:09:25;22.10;1.00
11536;DHT22;5824;49.336;8.652;2023-06-22T05:11:51;22.20;1.00
11536;DHT22;5824;49.336;8.652;2023-06-22T05:14:17;22.20;1.00
11536;DHT22;5824;49.336;8.652;2023-06-22T05:19:09;22.30;1.00
11536;DHT22;5824;49.336;8.652;2023-06-22T05:26:29;22.60;1.00
11536;DHT22;5824;49.336;8.652;2023-06-22T05:28:55;22.70;1.00
11536;DHT22;5824;49.336;8.652;2023-06-22T05:31:21;23.10;1.00
11536;DHT22;5824;49.336;8.652;2023-06-22T05:33:48;22.90;1.00
11536;DHT22;5824;49.336;8.652;2023-06-22T05:36:13;23.40;1.00
11536;DHT22;5824;49.336;8.652;2023-06-22T05:38:39;23.20;1.00
11536;DHT22;5824;49.336;8.652;2023-06-22T05:41:05;23.20;1.00
11536;DHT22;5824;49.336;8.652;2023-06-22T05:43:31;23.20;1.00
11536;DHT22;5824;49.336;8.652;2023-06-22T05:45:57;23.40;1.00
11536;DHT22;5824;49.336;8.652;2023-06-22T05:48:23;23.60;1.00
11536;DHT22;5824;49.336;8.652;2023-06-22T05:50:49;23.60;1.00
11536;DHT22;5824;49.336;8.652;2023-06-22T05:53:14;23.70;1.00
11536;DHT22;5824;49.336;8.652;2023-06-22T05:55:40;24.90;1.00
11536;DHT22;5824;49.336;8.652;2023-06-22T05:58:06;23.80;1.00
11536;DHT22;5824;49.336;8.652;2023-06-22T06:00:32;23.90;1.00
11536;DHT22;5824;49.336;8.652;2023-06-22T06:02:57;23.90;1.00
11536;DHT22;5824;49.336;8.652;2023-06-22T06:05:31;25.60;1.00
11536;DHT22;5824;49.336;8.652;2023-06-22T06:07:58;24.20;1.00
11536;DHT22;5824;49.336;8.652;2023-06-22T06:10:23;24.20;1.00
11536;DHT22;5824;49.336;8.652;2023-06-22T06:12:49;24.20;1.00
11536;DHT22;5824;49.336;8.652;2023-06-22T06:15:14;24.30;1.00
11536;DHT22;5824;49.336;8.652;2023-06-22T06:17:51;24.40;1.00
11536;DHT22;5824;49.336;8.652;2023-06-22T06:20:22;24.50;1.00
11536;DHT22;5824;49.336;8.652;2023-06-22T06:27:46;24.70;1.00
11536;DHT22;5824;49.336;8.652;2023-06-22T06:30:12;24.80;1.00
11536;DHT22;5824;49.336;8.652;2023-06-22T06:32:39;24.80;1.00
11536;DHT22;5824;49.336;8.652;2023-06-22T06:35:09;25.00;1.00
11536;DHT22;5824;49.336;8.652;2023-06-22T06:37:36;25.20;1.00
11536;DHT22;5824;49.336;8.652;2023-06-22T06:40:04;25.30;1.00
11536;DHT22;5824;49.336;8.652;2023-06-22T06:42:31;25.30;1.00
11536;DHT22;5824;49.336;8.652;2023-06-22T06:44:56;27.40;1.00
11536;DHT22;5824;49.336;8.652;2023-06-22T06:47:22;25.60;1.00
11536;DHT22;5824;49.336;8.652;2023-06-22T06:49:47;26.50;1.00
11536;DHT22;5824;49.336;8.652;2023-06-22T06:59:36;25.90;1.00
11536;DHT22;5824;49.336;8.652;2023-06-22T07:02:01;26.00;1.00
11536;DHT22;5824;49.336;8.652;2023-06-22T07:09:18;26.20;1.00
11536;DHT22;5824;49.336;8.652;2023-06-22T07:11:44;26.20;1.00
11536;DHT22;5824;49.336;8.652;2023-06-22T07:14:09;26.40;1.00
11536;DHT22;5824;49.336;8.652;2023-06-22T07:16:35;26.40;1.00
11536;DHT22;5824;49.336;8.652;2023-06-22T07:19:00;26.60;1.00
11536;DHT22;5824;49.336;8.652;2023-06-22T07:21:26;26.70;1.00
11536;DHT22;5824;49.336;8.652;2023-06-22T07:23:51;27.00;1.00
11536;DHT22;5824;49.336;8.652;2023-06-22T07:26:17;27.30;1.00
11536;DHT22;5824;49.336;8.652;2023-06-22T07:28:43;27.10;1.00
11536;DHT22;5824;49.336;8.652;2023-06-22T07:31:09;27.10;1.00
11536;DHT22;5824;49.336;8.652;2023-06-22T07:33:35;27.60;1.00
11536;DHT22;5824;49.336;8.652;2023-06-22T07:36:00;27.40;1.00
11536;DHT22;5824;49.336;8.652;2023-06-22T07:38:28;27.40;1.00
11536;DHT22;5824;49.336;8.652;2023-06-22T07:40:53;27.50;1.00
11536;DHT22;5824;49.336;8.652;2023-06-22T07:43:19;27.90;1.00
11536;DHT22;5824;49.336;8.652;2023-06-22T07:45:49;28.00;1.00
11536;DHT22;5824;49.336;8.652;2023-06-22T07:48:20;28.70;1.00
11536;DHT22;5824;49.336;8.652;2023-06-22T07:50:46;28.30;1.00
11536;DHT22;5824;49.336;8.652;2023-06-22T07:53:12;28.00;1.00
11536;DHT22;5824;49.336;8.652;2023-06-22T07:55:37;28.50;1.00
11536;DHT22;5824;49.336;8.652;2023-06-22T07:58:03;28.20;1.00
11536;DHT22;5824;49.336;8.652;2023-06-22T08:02:55;28.70;1.00
11536;DHT22;5824;49.336;8.652;2023-06-22T08:07:46;29.40;1.00
11536;DHT22;5824;49.336;8.652;2023-06-22T08:10:12;29.90;1.00
11536;DHT22;5824;49.336;8.652;2023-06-22T08:12:41;29.80;1.00
11536;DHT22;5824;49.336;8.652;2023-06-22T08:15:07;29.70;1.00
11536;DHT22;5824;49.336;8.652;2023-06-22T08:17:33;30.00;1.00
11536;DHT22;5824;49.336;8.652;2023-06-22T08:22:25;30.40;1.00
11536;DHT22;5824;49.336;8.652;2023-06-22T08:27:18;30.60;1.00
11536;DHT22;5824;49.336;8.652;2023-06-22T08:29:46;30.80;1.00
11536;DHT22;5824;49.336;8.652;2023-06-22T08:32:12;31.00;1.00
11536;DHT22;5824;49.336;8.652;2023-06-22T08:34:38;31.80;1.00
11536;DHT22;5824;49.336;8.652;2023-06-22T08:37:08;31.70;1.00
11536;DHT22;5824;49.336;8.652;2023-06-22T08:39:34;31.60;1.00
11536;DHT22;5824;49.336;8.652;2023-06-22T08:42:00;32.00;1.00
11536;DHT22;5824;49.336;8.652;2023-06-22T08:44:25;32.10;1.00
11536;DHT22;5824;49.336;8.652;2023-06-22T08:49:18;32.10;1.00
11536;DHT22;5824;49.336;8.652;2023-06-22T08:51:44;33.00;1.00
11536;DHT22;5824;49.336;8.652;2023-06-22T08:54:12;32.80;1.00
11536;DHT22;5824;49.336;8.652;2023-06-22T08:56:38;32.50;1.00
11536;DHT22;5824;49.336;8.652;2023-06-22T08:59:05;32.20;1.00
11536;DHT22;5824;49.336;8.652;2023-06-22T09:01:33;29.60;1.00
11536;DHT22;5824;49.336;8.652;2023-06-22T09:06:25;33.30;1.00
11536;DHT22;5824;49.336;8.652;2023-06-22T09:08:51;33.50;1.00
11536;DHT22;5824;49.336;8.652;2023-06-22T09:11:17;33.50;1.00
11536;DHT22;5824;49.336;8.652;2023-06-22T09:13:43;33.80;1.00
11536;DHT22;5824;49.336;8.652;2023-06-22T09:18:34;33.70;1.00
11536;DHT22;5824;49.336;8.652;2023-06-22T09:21:01;33.80;1.00
11536;DHT22;5824;49.336;8.652;2023-06-22T09:33:11;35.70;1.00
11536;DHT22;5824;49.336;8.652;2023-06-22T09:42:54;35.40;1.00
11536;DHT22;5824;49.336;8.652;2023-06-22T09:47:46;36.70;1.00
11536;DHT22;5824;49.336;8.652;2023-06-22T09:55:03;38.70;1.00
11536;DHT22;5824;49.336;8.652;2023-06-22T09:59:55;39.10;1.00
11536;DHT22;5824;49.336;8.652;2023-06-22T10:09:40;38.50;1.00
11536;DHT22;5824;49.336;8.652;2023-06-22T10:12:06;37.60;1.00
11536;DHT22;5824;49.336;8.652;2023-06-22T10:16:58;37.50;1.00
11536;DHT22;5824;49.336;8.652;2023-06-22T10:21:49;37.30;1.00
11536;DHT22;5824;49.336;8.652;2023-06-22T10:26:41;36.80;1.00
11536;DHT22;5824;49.336;8.652;2023-06-22T10:33:58;36.10;1.00
11536;DHT22;5824;49.336;8.652;2023-06-22T10:38:50;33.80;1.00
11536;DHT22;5824;49.336;8.652;2023-06-22T10:43:44;33.60;1.00
11536;DHT22;5824;49.336;8.652;2023-06-22T10:46:09;33.20;1.00
11536;DHT22;5824;49.336;8.652;2023-06-22T10:48:35;33.80;1.00
11536;DHT22;5824;49.336;8.652;2023-06-22T10:51:00;33.80;1.00
11536;DHT22;5824;49.336;8.652;2023-06-22T10:53:26;34.20;1.00
11536;DHT22;5824;49.336;8.652;2023-06-22T10:55:51;34.20;1.00
11536;DHT22;5824;49.336;8.652;2023-06-22T10:58:18;35.30;1.00
11536;DHT22;5824;49.336;8.652;2023-06-22T11:05:37;36.90;1.00
11536;DHT22;5824;49.336;8.652;2023-06-22T11:12:54;36.70;1.00
11536;DHT22;5824;49.336;8.652;2023-06-22T11:17:47;35.80;1.00
11536;DHT22;5824;49.336;8.652;2023-06-22T11:22:39;36.90;1.00
11536;DHT22;5824;49.336;8.652;2023-06-22T11:25:05;37.50;1.00
11536;DHT22;5824;49.336;8.652;2023-06-22T11:34:50;36.00;1.00
11536;DHT22;5824;49.336;8.652;2023-06-22T11:37:15;35.80;1.00
11536;DHT22;5824;49.336;8.652;2023-06-22T11:39:41;35.50;1.00
11536;DHT22;5824;49.336;8.652;2023-06-22T11:42:07;35.40;1.00
11536;DHT22;5824;49.336;8.652;2023-06-22T11:44:34;35.90;1.00
11536;DHT22;5824;49.336;8.652;2023-06-22T11:49:26;37.10;1.00
11536;DHT22;5824;49.336;8.652;2023-06-22T11:59:10;36.00;1.00
11536;DHT22;5824;49.336;8.652;2023-06-22T12:01:35;35.50;1.00
11536;DHT22;5824;49.336;8.652;2023-06-22T12:04:01;34.90;1.00
11536;DHT22;5824;49.336;8.652;2023-06-22T12:08:53;34.60;1.00
11536;DHT22;5824;49.336;8.652;2023-06-22T12:11:18;34.70;1.00
11536;DHT22;5824;49.336;8.652;2023-06-22T12:13:44;34.60;1.00
11536;DHT22;5824;49.336;8.652;2023-06-22T12:16:09;34.60;1.00
11536;DHT22;5824;49.336;8.652;2023-06-22T12:18:35;34.70;1.00
11536;DHT22;5824;49.336;8.652;2023-06-22T12:23:27;35.00;1.00
11536;DHT22;5824;49.336;8.652;2023-06-22T12:25:53;35.00;1.00
11536;DHT22;5824;49.336;8.652;2023-06-22T12:35:36;37.30;1.00
11536;DHT22;5824;49.336;8.652;2023-06-22T12:38:02;38.80;1.00
11536;DHT22;5824;49.336;8.652;2023-06-22T12:40:28;39.60;1.00
11536;DHT22;5824;49.336;8.652;2023-06-22T12:42:54;39.60;1.00
11536;DHT22;5824;49.336;8.652;2023-06-22T12:52:39;35.80;1.00
11536;DHT22;5824;49.336;8.652;2023-06-22T12:55:06;35.80;1.00
11536;DHT22;5824;49.336;8.652;2023-06-22T12:59:58;34.80;1.00
11536;DHT22;5824;49.336;8.652;2023-06-22T13:02:25;34.50;1.00
11536;DHT22;5824;49.336;8.652;2023-06-22T13:04:51;36.00;1.00
11536;DHT22;5824;49.336;8.652;2023-06-22T13:07:16;35.40;1.00
11536;DHT22;5824;49.336;8.652;2023-06-22T13:09:42;35.20;1.00
11536;DHT22;5824;49.336;8.652;2023-06-22T13:12:08;35.30;1.00
11536;DHT22;5824;49.336;8.652;2023-06-22T13:16:59;38.10;1.00
11536;DHT22;5824;49.336;8.652;2023-06-22T13:31:37;38.00;1.00
11536;DHT22;5824;49.336;8.652;2023-06-22T13:34:03;38.00;1.00
11536;DHT22;5824;49.336;8.652;2023-06-22T13:36:28;38.50;1.00
11536;DHT22;5824;49.336;8.652;2023-06-22T13:38:56;37.70;1.00
11536;DHT22;5824;49.336;8.652;2023-06-22T13:41:21;36.40;1.00
11536;DHT22;5824;49.336;8.652;2023-06-22T13:55:57;38.80;1.00
11536;DHT22;5824;49.336;8.652;2023-06-22T14:03:16;37.90;1.00
11536;DHT22;5824;49.336;8.652;2023-06-22T14:05:42;37.20;1.00
11536;DHT22;5824;49.336;8.652;2023-06-22T14:08:08;36.60;1.00
11536;DHT22;5824;49.336;8.652;2023-06-22T14:13:00;36.00;1.00
11536;DHT22;5824;49.336;8.652;2023-06-22T14:17:52;34.60;1.00
11536;DHT22;5824;49.336;8.652;2023-06-22T14:20:18;34.50;1.00
11536;DHT22;5824;49.336;8.652;2023-06-22T14:22:43;34.30;1.00
11536;DHT22;5824;49.336;8.652;2023-06-22T14:32:28;33.40;1.00
11536;DHT22;5824;49.336;8.652;2023-06-22T14:39:47;32.20;1.00
11536;DHT22;5824;49.336;8.652;2023-06-22T14:42:12;32.10;1.00
11536;DHT22;5824;49.336;8.652;2023-06-22T14:44:38;32.00;1.00
11536;DHT22;5824;49.336;8.652;2023-06-22T14:47:03;32.20;1.00
11536;DHT22;5824;49.336;8.652;2023-06-22T14:49:29;31.80;1.00
11536;DHT22;5824;49.336;8.652;2023-06-22T14:51:55;31.60;1.00
11536;DHT22;5824;49.336;8.652;2023-06-22T14:56:48;31.50;1.00
11536;DHT22;5824;49.336;8.652;2023-06-22T14:59:14;29.80;1.00
11536;DHT22;5824;49.336;8.652;2023-06-22T15:06:31;30.70;1.00
11536;DHT22;5824;49.336;8.652;2023-06-22T15:11:23;31.20;1.00
11536;DHT22;5824;49.336;8.652;2023-06-22T15:16:14;32.00;1.00
11536;DHT22;5824;49.336;8.652;2023-06-22T15:18:41;33.00;1.00
11536;DHT22;5824;49.336;8.652;2023-06-22T15:23:33;33.50;1.00
11536;DHT22;5824;49.336;8.652;2023-06-22T15:26:03;34.30;1.00
11536;DHT22;5824;49.336;8.652;2023-06-22T15:28:30;35.30;1.00
11536;DHT22;5824;49.336;8.652;2023-06-22T15:33:24;34.90;1.00
11536;DHT22;5824;49.336;8.652;2023-06-22T15:35:50;34.80;1.00
11536;DHT22;5824;49.336;8.652;2023-06-22T15:43:10;34.60;1.00
11536;DHT22;5824;49.336;8.652;2023-06-22T15:45:37;34.60;1.00
11536;DHT22;5824;49.336;8.652;2023-06-22T15:48:02;35.70;1.00
11536;DHT22;5824;49.336;8.652;2023-06-22T15:50:28;34.90;1.00
11536;DHT22;5824;49.336;8.652;2023-06-22T15:52:54;34.90;1.00
11536;DHT22;5824;49.336;8.652;2023-06-22T15:57:45;34.70;1.00
11536;DHT22;5824;49.336;8.652;2023-06-22T16:00:15;37.40;1.00
11536;DHT22;5824;49.336;8.652;2023-06-22T16:02:42;34.50;1.00
11536;DHT22;5824;49.336;8.652;2023-06-22T16:05:08;34.40;1.00
11536;DHT22;5824;49.336;8.652;2023-06-22T16:07:35;34.00;1.00
11536;DHT22;5824;49.336;8.652;2023-06-22T16:10:00;33.90;1.00
11536;DHT22;5824;49.336;8.652;2023-06-22T16:12:26;33.70;1.00
11536;DHT22;5824;49.336;8.652;2023-06-22T16:14:54;33.60;1.00
11536;DHT22;5824;49.336;8.652;2023-06-22T16:17:20;33.60;1.00
11536;DHT22;5824;49.336;8.652;2023-06-22T16:19:46;33.20;1.00
11536;DHT22;5824;49.336;8.652;2023-06-22T16:22:12;33.10;1.00
11536;DHT22;5824;49.336;8.652;2023-06-22T16:24:37;33.00;1.00
11536;DHT22;5824;49.336;8.652;2023-06-22T16:29:29;32.20;1.00
11536;DHT22;5824;49.336;8.652;2023-06-22T16:31:55;31.90;1.00
11536;DHT22;5824;49.336;8.652;2023-06-22T16:34:21;31.60;1.00
11536;DHT22;5824;49.336;8.652;2023-06-22T16:36:46;31.20;1.00
11536;DHT22;5824;49.336;8.652;2023-06-22T16:39:11;31.40;1.00
11536;DHT22;5824;49.336;8.652;2023-06-22T16:46:32;31.00;1.00
11536;DHT22;5824;49.336;8.652;2023-06-22T16:48:59;31.10;1.00
11536;DHT22;5824;49.336;8.652;2023-06-22T16:51:24;32.70;1.00
11536;DHT22;5824;49.336;8.652;2023-06-22T16:53:54;31.40;1.00
11536;DHT22;5824;49.336;8.652;2023-06-22T16:56:26;31.40;1.00
11536;DHT22;5824;49.336;8.652;2023-06-22T16:58:57;31.40;1.00
11536;DHT22;5824;49.336;8.652;2023-06-22T17:01:24;31.40;1.00
11536;DHT22;5824;49.336;8.652;2023-06-22T17:04:10;31.60;1.00
11536;DHT22;5824;49.336;8.652;2023-06-22T17:06:42;31.70;1.00
11536;DHT22;5824;49.336;8.652;2023-06-22T17:09:11;31.70;1.00
11536;DHT22;5824;49.336;8.652;2023-06-22T17:11:37;33.20;1.00
11536;DHT22;5824;49.336;8.652;2023-06-22T17:14:02;31.60;1.00
11536;DHT22;5824;49.336;8.652;2023-06-22T17:16:31;31.50;1.00
11536;DHT22;5824;49.336;8.652;2023-06-22T17:18:57;31.40;1.00
11536;DHT22;5824;49.336;8.652;2023-06-22T17:21:24;31.40;1.00
11536;DHT22;5824;49.336;8.652;2023-06-22T17:23:50;31.20;1.00
11536;DHT22;5824;49.336;8.652;2023-06-22T17:28:49;31.00;1.00
11536;DHT22;5824;49.336;8.652;2023-06-22T17:31:15;31.00;1.00
11536;DHT22;5824;49.336;8.652;2023-06-22T17:33:41;31.00;1.00
11536;DHT22;5824;49.336;8.652;2023-06-22T17:36:11;31.00;1.00
11536;DHT22;5824;49.336;8.652;2023-06-22T17:38:38;31.10;1.00
11536;DHT22;5824;49.336;8.652;2023-06-22T17:43:30;31.20;1.00
11536;DHT22;5824;49.336;8.652;2023-06-22T17:45:59;31.10;1.00
11536;DHT22;5824;49.336;8.652;2023-06-22T17:48:25;31.10;1.00
11536;DHT22;5824;49.336;8.652;2023-06-22T17:50:51;31.20;1.00
11536;DHT22;5824;49.336;8.652;2023-06-22T17:53:17;31.20;1.00
11536;DHT22;5824;49.336;8.652;2023-06-22T17:58:09;30.90;1.00
11536;DHT22;5824;49.336;8.652;2023-06-22T18:00:35;30.80;1.00
11536;DHT22;5824;49.336;8.652;2023-06-22T18:03:04;30.80;1.00
11536;DHT22;5824;49.336;8.652;2023-06-22T18:05:34;30.80;1.00
11536;DHT22;5824;49.336;8.652;2023-06-22T18:08:04;30.70;1.00
11536;DHT22;5824;49.336;8.652;2023-06-22T18:10:31;30.60;1.00
11536;DHT22;5824;49.336;8.652;2023-06-22T18:12:59;30.50;1.00
11536;DHT22;5824;49.336;8.652;2023-06-22T18:15:25;30.50;1.00
11536;DHT22;5824;49.336;8.652;2023-06-22T18:17:51;30.20;1.00
11536;DHT22;5824;49.336;8.652;2023-06-22T18:20:18;30.20;1.00
11536;DHT22;5824;49.336;8.652;2023-06-22T18:22:48;30.20;1.00
11536;DHT22;5824;49.336;8.652;2023-06-22T18:25:14;30.20;1.00
11536;DHT22;5824;49.336;8.652;2023-06-22T18:27:42;30.10;1.00
11536;DHT22;5824;49.336;8.652;2023-06-22T18:30:09;30.00;1.00
11536;DHT22;5824;49.336;8.652;2023-06-22T18:35:03;29.90;1.00
11536;DHT22;5824;49.336;8.652;2023-06-22T18:37:30;29.80;1.00
11536;DHT22;5824;49.336;8.652;2023-06-22T18:39:57;29.70;1.00
11536;DHT22;5824;49.336;8.652;2023-06-22T18:44:53;29.50;1.00
11536;DHT22;5824;49.336;8.652;2023-06-22T18:47:29;29.50;1.00
11536;DHT22;5824;49.336;8.652;2023-06-22T18:50:07;29.50;1.00
11536;DHT22;5824;49.336;8.652;2023-06-22T18:52:34;29.40;1.00
11536;DHT22;5824;49.336;8.652;2023-06-22T18:55:04;29.20;1.00
11536;DHT22;5824;49.336;8.652;2023-06-22T18:57:32;29.30;1.00
11536;DHT22;5824;49.336;8.652;2023-06-22T19:00:09;29.30;1.00
11536;DHT22;5824;49.336;8.652;2023-06-22T19:15:53;29.00;1.00
11536;DHT22;5824;49.336;8.652;2023-06-22T19:18:22;29.10;1.00
11536;DHT22;5824;49.336;8.652;2023-06-22T19:21:01;28.80;1.00
11536;DHT22;5824;49.336;8.652;2023-06-22T19:23:34;28.80;1.00
11536;DHT22;5824;49.336;8.652;2023-06-22T19:26:02;28.70;1.00
11536;DHT22;5824;49.336;8.652;2023-06-22T19:28:30;28.60;1.00
11536;DHT22;5824;49.336;8.652;2023-06-22T19:30:57;28.70;1.00
11536;DHT22;5824;49.336;8.652;2023-06-22T19:33:24;28.60;1.00
11536;DHT22;5824;49.336;8.652;2023-06-22T19:35:55;28.50;1.00
11536;DHT22;5824;49.336;8.652;2023-06-22T19:38:24;28.50;1.00
11536;DHT22;5824;49.336;8.652;2023-06-22T19:40:51;28.30;1.00
11536;DHT22;5824;49.336;8.652;2023-06-22T19:43:16;28.10;1.00
11536;DHT22;5824;49.336;8.652;2023-06-22T19:45:43;28.00;1.00
11536;DHT22;5824;49.336;8.652;2023-06-22T19:48:12;28.20;1.00
11536;DHT22;5824;49.336;8.652;2023-06-22T19:50:38;27.80;1.00
11536;DHT22;5824;49.336;8.652;2023-06-22T19:53:10;27.50;1.00
11536;DHT22;5824;49.336;8.652;2023-06-22T19:55:37;27.50;1.00
11536;DHT22;5824;49.336;8.652;2023-06-22T19:58:04;27.30;1.00
11536;DHT22;5824;49.336;8.652;2023-06-22T20:00:29;27.40;1.00
11536;DHT22;5824;49.336;8.652;2023-06-22T20:02:56;27.20;1.00
11536;DHT22;5824;49.336;8.652;2023-06-22T20:07:48;27.00;1.00
11536;DHT22;5824;49.336;8.652;2023-06-22T20:10:15;26.70;1.00
11536;DHT22;5824;49.336;8.652;2023-06-22T20:12:42;26.80;1.00
11536;DHT22;5824;49.336;8.652;2023-06-22T20:15:27;26.70;1.00
11536;DHT22;5824;49.336;8.652;2023-06-22T20:18:03;26.60;1.00
11536;DHT22;5824;49.336;8.652;2023-06-22T20:20:34;26.60;1.00
11536;DHT22;5824;49.336;8.652;2023-06-22T20:23:01;26.50;1.00
11536;DHT22;5824;49.336;8.652;2023-06-22T20:25:31;26.40;1.00
11536;DHT22;5824;49.336;8.652;2023-06-22T20:28:04;26.50;1.00
11536;DHT22;5824;49.336;8.652;2023-06-22T20:30:31;26.40;1.00
11536;DHT22;5824;49.336;8.652;2023-06-22T20:32:57;26.30;1.00
11536;DHT22;5824;49.336;8.652;2023-06-22T20:35:24;26.30;1.00
11536;DHT22;5824;49.336;8.652;2023-06-22T20:37:51;26.20;1.00
11536;DHT22;5824;49.336;8.652;2023-06-22T20:40:21;26.00;1.00